Capitol Logistics 343




KMIA
Miami International Airport
Miami, Florida
TIST
Cyril E King Airport
Charlotte Amalie, U.S.V.I

Activity Log

Date Flight Route Aircraft Duration
No Flights Yet

Route Details

Aircraft Information
Primary: Boeing 737-800BCF
Backup: Boeing 757-200SF
Route Data
Distance: 963nm
Duration: 2h 37m
Recm'd Route: SKIPS2 SKIPS Y290 JETSS
Origin Wx: KMIA 142053Z 09010KT 10SM FEW038 27/17 A3005 RMK AO2 SLP176 T02670167 56014 $
Dest. Wx: TIST 142053Z 35014G19KT 10SM CLR 29/21 A2990 RMK AO2 SLP127 T02890211 56009
Notes: